AVV weather

Avalon Airport
Melbourne, Victoria, Australia

Public forecast

Using degrees Celsius for public forecast. Weather courtesy of forecast.io.

METAR (pilot weather report)

Retrieved 2018/01/20 16:30 UTC (14 minutes ago):

YMAV 201630Z AUTO 15005KT 120V180 //// // NCD 21/20 Q1009 RF00.0/000.0 PRESENT WEATHER SENSOR US

TAF (pilot weather forecast)

Forecast is more than 6 hours old.

Retrieved 2018/01/20 06:00 UTC (11 hours ago):

TAF YMAV 200514Z 2006/2106 18012KT 9999 -SHRA FEW015 FM200700 19010KT 9999 -SHRA SCT008 FM201200 21008KT 9999 -SHRA BKN008 BECMG 2100/2102 18010KT 9999 -SHRA FEW008